Latest Coastal Weather Observations for Yarram Airport

IDV60701

Issued at 7:51 pm EST Tuesday 21 April 2015 (issued every 10 minutes, with the page automatically refreshed every 10 minutes)

About coastal observations | Map of coastal stations | Coastal observations for VIC | Marine services | Other Formats
Station Details ID: 085151 Name: YARRAM AIRPORT Lat: -38.56 Lon: 146.75 Height: 17.9 m
Data from the previous 72 hours. | See also: Recent months at Yarram Airport
Date/Time
EST
Temp

°C
Wind Pressure Rain
since 9am
mm
Weather Cloud Vis
km
Sea
Height
m
Swell
Dir
 
Speed
knots
Gust
knots
hPa Trend Height
m
Period
s
Dir
21/07:30pm 7.4 CALM 0 0 1030.6 - 0.0 - - - - - - -
21/07:00pm 8.2 CALM 0 0 1030.6 - 0.0 - - - - - - -
21/06:30pm 9.6 CALM 0 0 1030.5 - 0.0 - - - - - - -
21/06:00pm 11.3 SE 4 5 1030.5 - 0.0 - - - - - - -
21/05:30pm 12.6 SE 5 6 1030.5 - 0.0 - - - - - - -
21/05:00pm 14.1 SE 8 10 1030.3 - 0.0 - - - - - - -
21/04:30pm 14.9 ESE 8 11 1030.4 - 0.0 - - - - - - -
21/04:00pm 15.4 ESE 7 10 1030.5 - 0.0 - - - - - - -
21/03:30pm 15.8 ESE 9 13 1030.7 - 0.0 - - - - - - -
21/03:00pm 16.1 E 8 13 1030.8 - 0.0 - - - - - - -
21/02:30pm 16.3 ESE 10 14 1030.7 - 0.0 - - - - - - -
21/02:00pm 16.4 E 8 12 1030.6 - 0.0 - - - - - - -
21/01:30pm 16.8 ESE 7 13 1030.7 - 0.0 - - - - - - -
21/01:00pm 17.2 ESE 7 11 1031.2 - 0.0 - - - - - - -
21/12:30pm 16.2 E 7 11 1031.7 - 0.0 - - - - - - -
21/12:00pm 16.3 ESE 8 12 1032.1 - 0.0 - - - - - - -
21/11:30am 15.5 SE 6 10 1032.4 - 0.0 - - - - - - -
21/11:00am 15.9 SE 5 8 1032.6 - 0.0 - - - - - - -
21/10:30am 14.7 SSE 5 8 1032.9 - 0.0 - - - - - - -
21/10:00am 14.0 SSW 4 5 1033.2 - 0.0 - - - - - - -
21/09:30am 13.1 W 5 6 1033.3 - 0.0 - - - - - - -
21/09:00am 11.4 WNW 4 6 1033.5 - 0.0 - - - - - - -
21/08:30am 9.3 WNW 3 4 1033.8 - 0.0 - - - - - - -
21/08:00am 6.6 W 3 5 1033.9 - 0.0 - - - - - - -
21/07:30am 3.3 CALM 0 4 1033.8 - 0.0 - - - - - - -
21/07:00am 1.4 WNW 4 5 1033.5 - 0.0 - - - - - - -
21/06:30am 2.6 WNW 4 5 1033.3 - 0.0 - - - - - - -
21/06:00am 1.8 CALM 0 0 1033.4 - 0.0 - - - - - - -
21/05:30am 2.4 CALM 0 0 1033.2 - 0.0 - - - - - - -
21/05:00am 2.7 W 3 4 1033.1 - 0.0 - - - - - - -
21/04:30am 2.7 WNW 3 3 1033.0 - 0.0 - - - - - - -
21/04:00am 3.3 W 5 6 1032.8 - 0.0 - - - - - - -
21/03:30am 3.4 W 4 5 1032.9 - 0.0 - - - - - - -
21/03:00am 2.9 W 5 6 1033.2 - 0.0 - - - - - - -
21/02:30am 2.5 WNW 5 6 1033.6 - 0.0 - - - - - - -
21/02:00am 2.9 NW 4 4 1034.1 - 0.0 - - - - - - -
21/01:30am 2.4 NNW 3 4 1034.5 - 0.0 - - - - - - -
21/01:00am 2.8 NW 3 4 1034.5 - 0.0 - - - - - - -
21/12:30am 3.1 NW 4 5 1034.5 - 0.0 - - - - - - -
21/12:00am 3.1 NNW 4 5 1034.7 - 0.0 - - - - - - -
 
Date/Time
EST
Temp

°C
Wind Pressure Rain
since 9am
mm
Weather Cloud Vis
km
Sea
Height
m
Swell
Dir
 
Speed
knots
Gust
knots
hPa Trend Height
m
Period
s
Dir
20/11:30pm 3.1 WNW 4 5 1034.8 - 0.0 - - - - - - -
20/11:00pm 3.4 NW 4 4 1035.1 - 0.0 - - - - - - -
20/10:30pm 3.8 NW 5 6 1035.3 - 0.0 - - - - - - -
20/10:00pm 3.3 NW 4 4 1035.5 - 0.0 - - - - - - -
20/09:30pm 4.5 NW 4 4 1035.6 - 0.0 - - - - - - -
20/09:00pm 4.1 NNW 4 5 1035.7 - 0.0 - - - - - - -
20/08:30pm 4.8 WNW 6 6 1035.8 - 0.0 - - - - - - -
20/08:00pm 5.4 WNW 5 6 1035.6 - 0.0 - - - - - - -
20/07:30pm 5.3 WNW 3 4 1035.5 - 0.0 - - - - - - -
20/07:00pm 6.6 CALM 0 0 1035.5 - 0.0 - - - - - - -
20/06:30pm 8.0 SSW 5 6 1035.4 - 0.0 - - - - - - -
20/06:00pm 8.6 S 6 7 1035.3 - 0.0 - - - - - - -
20/05:30pm 10.2 S 8 8 1035.0 - 0.0 - - - - - - -
20/05:00pm 12.8 S 8 11 1034.9 - 0.0 - - - - - - -
20/04:30pm 13.4 S 7 11 1034.9 - 0.0 - - - - - - -
20/04:00pm 14.3 S 10 13 1034.8 - 0.0 - - - - - - -
20/03:30pm 14.5 SSE 8 10 1034.8 - 0.0 - - - - - - -
20/03:00pm 15.1 S 8 12 1034.8 - 0.0 - - - - - - -
20/02:30pm 15.1 SSE 9 14 1034.9 - 0.0 - - - - - - -
20/02:00pm 15.9 SSE 10 17 1035.1 - 0.0 - - - - - - -
20/01:30pm 15.2 SSE 10 15 1035.3 - 0.0 - - - - - - -
20/01:00pm 15.8 S 10 14 1035.5 - 0.0 - - - - - - -
20/12:30pm 15.8 SSW 11 15 1035.7 - 0.0 - - - - - - -
20/12:00pm 15.5 S 7 11 1036.2 - 0.0 - - - - - - -
20/11:30am 15.1 S 7 12 1036.5 - 0.0 - - - - - - -
20/11:00am 15.1 SSE 7 11 1036.7 - 0.0 - - - - - - -
20/10:30am 14.8 SSE 9 15 1036.8 - 0.0 - - - - - - -
20/10:00am 14.4 S 6 9 1036.8 - 0.0 - - - - - - -
20/09:30am 12.8 SW 5 7 1036.9 - 0.0 - - - - - - -
20/09:00am 11.5 W 5 6 1036.9 - 0.4 - - - - - - -
20/08:30am 10.0 W 5 6 1036.8 - 0.4 - - - - - - -
20/08:00am 7.4 NW 3 4 1036.7 - 0.4 - - - - - - -
20/07:30am 4.8 NW 3 4 1036.3 - 0.4 - - - - - - -
20/07:00am 4.3 NW 3 4 1036.0 - 0.4 - - - - - - -
20/06:30am 5.3 NW 5 6 1035.8 - 0.4 - - - - - - -
20/06:00am 5.9 WNW 2 5 1035.6 - 0.4 - - - - - - -
20/05:30am 4.6 WNW 6 6 1035.3 - 0.4 - - - - - - -
20/05:00am 5.7 WNW 5 6 1035.0 - 0.4 - - - - - - -
20/04:30am 5.6 WNW 7 8 1034.6 - 0.4 - - - - - - -
20/04:00am 6.1 WNW 6 7 1034.4 - 0.4 - - - - - - -
20/03:30am 6.8 WNW 8 9 1034.2 - 0.4 - - - - - - -
20/03:00am 7.1 WNW 8 9 1034.2 - 0.4 - - - - - - -
20/02:30am 7.0 NW 6 7 1034.2 - 0.4 - - - - - - -
20/02:00am 8.3 WNW 5 6 1034.3 - 0.4 - - - - - - -
20/01:30am 8.0 W 8 11 1034.3 - 0.4 - - - - - - -
20/01:00am 7.9 WNW 8 9 1034.1 - 0.4 - - - - - - -
20/12:30am 8.5 WNW 8 9 1034.0 - 0.4 - - - - - - -
20/12:00am 8.3 W 9 13 1034.1 - 0.4 - - - - - - -
 
Date/Time
EST
Temp

°C
Wind Pressure Rain
since 9am
mm
Weather Cloud Vis
km
Sea
Height
m
Swell
Dir
 
Speed
knots
Gust
knots
hPa Trend Height
m
Period
s
Dir
19/11:30pm 7.1 WNW 7 9 1033.9 - 0.4 - - - - - - -
19/11:00pm 7.1 WNW 7 9 1033.8 - 0.4 - - - - - - -
19/10:30pm 7.3 NW 5 6 1033.9 - 0.4 - - - - - - -
19/10:00pm 7.8 W 6 9 1033.8 - 0.4 - - - - - - -
19/09:30pm 7.6 WNW 7 8 1033.4 - 0.4 - - - - - - -
19/09:00pm 10.1 SW 9 12 1033.1 - 0.4 Recent precip. - - - - - -
19/08:30pm 9.9 SW 10 21 1032.8 - 0.2 - - - - - - -
19/08:00pm 7.3 WNW 7 8 1032.4 - 0.2 - - - - - - -
19/07:30pm 8.2 W 8 9 1032.1 - 0.2 - - - - - - -
19/07:00pm 9.6 WSW 11 16 1031.5 - 0.2 - - - - - - -
19/06:30pm 9.2 WSW 7 8 1031.0 - 0.0 - - - - - - -
19/06:00pm 10.2 WSW 9 11 1030.5 - 0.0 - - - - - - -
19/05:30pm 11.3 SW 10 14 1029.9 - 0.0 - - - - - - -
19/05:00pm 12.1 SSW 14 18 1029.5 - 0.0 - - - - - - -
19/04:30pm 12.3 SSW 16 22 1028.9 - 0.0 - - - - - - -
19/04:00pm 12.1 SSW 15 19 1028.5 - 0.0 - - - - - - -
19/03:30pm 13.2 SSW 17 22 1028.1 - 0.0 - - - - - - -
19/03:00pm 14.3 SSW 19 25 1027.9 - 0.0 - - - - - - -
19/02:30pm 14.5 SSW 18 25 1027.5 - 0.0 - - - - - - -
19/02:00pm 15.1 SSW 18 27 1027.1 - 0.0 - - - - - - -
19/01:30pm 15.1 SSW 21 26 1026.7 - 0.0 - - - - - - -
19/01:00pm 14.9 SSW 20 27 1026.3 - 0.0 - - - - - - -
19/12:30pm 15.2 SSW 20 25 1026.1 - 0.0 - - - - - - -
19/12:00pm 15.1 SSW 20 25 1026.1 - 0.0 - - - - - - -
19/11:30am 14.7 SSW 19 24 1025.9 - 0.0 - - - - - - -
19/11:00am 13.3 SSW 17 22 1025.6 - 0.0 - - - - - - -
19/10:30am 13.7 SW 17 22 1025.1 - 0.0 - - - - - - -
19/10:00am 14.4 SSW 21 28 1024.8 - 0.0 - - - - - - -
19/09:36am 13.1 SW 15 25 1024.4 - 0.0 - - - - - - -
19/09:30am 13.9 SW 12 15 1024.2 - 0.0 - - - - - - -
19/09:00am 12.8 W 11 15 1023.7 - 2.6 - - - - - - -
19/08:30am 11.0 W 13 17 1023.2 - 2.6 - - - - - - -
19/08:00am 10.7 W 10 15 1022.4 - 2.6 - - - - - - -
19/07:30am 10.1 W 13 17 1021.7 - 2.6 - - - - - - -
19/07:00am 9.3 W 11 15 1020.8 - 2.6 - - - - - - -
19/06:30am 9.0 W 9 11 1020.1 - 2.6 - - - - - - -
19/06:00am 9.7 W 9 13 1019.7 - 2.6 Recent precip. - - - - - -
19/05:30am 9.9 W 12 16 1019.2 - 2.6 - - - - - - -
19/05:00am 9.9 WNW 9 12 1018.5 - 1.4 - - - - - - -
19/04:30am 10.3 WNW 10 13 1017.9 - 1.0 - - - - - - -
19/04:00am 10.2 WNW 9 11 1017.6 - 1.0 - - - - - - -
19/03:30am 10.5 WNW 10 12 1017.2 - 1.0 - - - - - - -
19/03:00am 11.0 W 11 14 1017.0 - 1.0 - - - - - - -
19/02:30am 10.8 WNW 10 12 1016.7 - 1.0 - - - - - - -
19/02:00am 11.1 W 12 15 1016.5 - 1.0 - - - - - - -
19/01:30am 11.0 WNW 10 13 1016.1 - 1.0 - - - - - - -
19/01:00am 11.1 W 11 15 1016.4 - 1.0 - - - - - - -
19/12:30am 11.1 W 11 15 1016.3 - 0.8 - - - - - - -
19/12:00am 10.9 W 10 13 1016.0 - 0.8 Recent precip. - - - - - -
 
Date/Time
EST
Temp

°C
Wind Pressure Rain
since 9am
mm
Weather Cloud Vis
km
Sea
Height
m
Swell
Dir
 
Speed
knots
Gust
knots
hPa Trend Height
m
Period
s
Dir
18/11:30pm 11.0 W 9 13 1016.1 - 0.8 - - - - - - -
18/11:00pm 11.3 WSW 7 9 1015.9 - 0.6 - - - - - - -
18/10:30pm 11.3 W 12 15 1015.7 - 0.4 - - - - - - -
18/10:00pm 11.4 W 10 13 1015.4 - 0.4 - - - - - - -
18/09:30pm 11.7 WSW 13 17 1015.4 - 0.2 - - - - - - -
18/09:00pm 12.0 W 13 18 1014.7 - 0.2 Recent precip. - - - - - -
18/08:30pm 12.7 WSW 16 22 1014.2 - 0.2 - - - - - - -
18/08:00pm 14.0 WSW 18 29 1013.4 - 0.0 - - - - - - -

Other Formats:

Comma delimited format used in spreadsheet applications
http://www.bom.gov.au/fwo/IDV60701/IDV60701.95890.axf

JavaScript Object Notation format (JSON) in row-major order
http://www.bom.gov.au/fwo/IDV60701/IDV60701.95890.json